createdAt,value
2023-03-28T00:00:04.486Z,98558.00
2023-03-28T00:04:05.633Z,98560.00
2023-03-28T00:08:07.376Z,98569.00
2023-03-28T00:12:08.587Z,98567.00
2023-03-28T00:16:11.864Z,98573.00
2023-03-28T00:20:13.990Z,98581.00
2023-03-28T00:24:20.099Z,98585.00
2023-03-28T00:28:21.523Z,98587.00
2023-03-28T00:32:22.790Z,98603.00
2023-03-28T00:36:28.551Z,98611.00
2023-03-28T00:40:33.782Z,98605.00
2023-03-28T00:44:47.245Z,98603.00
2023-03-28T00:48:51.778Z,98596.00
2023-03-28T00:53:03.935Z,98611.00
2023-03-28T00:57:07.571Z,98609.00
2023-03-28T01:01:11.588Z,98604.00
2023-03-28T01:05:13.381Z,98609.00
2023-03-28T01:09:16.362Z,98609.00
2023-03-28T01:13:20.686Z,98606.00
2023-03-28T01:17:21.745Z,98604.00
2023-03-28T01:21:46.090Z,98609.00
2023-03-28T01:26:24.215Z,98615.00
2023-03-28T01:30:47.290Z,98616.00
2023-03-28T01:34:58.069Z,98621.00
2023-03-28T01:39:31.736Z,98612.00
2023-03-28T01:43:42.299Z,98607.00
2023-03-28T01:47:49.863Z,98615.00
2023-03-28T01:52:00.206Z,98617.00
2023-03-28T01:56:26.116Z,98623.00
2023-03-28T02:00:36.623Z,98626.00
2023-03-28T02:04:41.412Z,98642.00
2023-03-28T02:08:45.629Z,98632.00
2023-03-28T02:12:53.178Z,98633.00
2023-03-28T02:16:59.934Z,98627.00
2023-03-28T02:21:10.751Z,98632.00
2023-03-28T02:25:11.938Z,98624.00
2023-03-28T02:29:15.116Z,98621.00
2023-03-28T02:33:37.081Z,98631.00
2023-03-28T02:37:41.830Z,98616.00
2023-03-28T02:41:49.673Z,98615.00
2023-03-28T02:46:16.798Z,98615.00
2023-03-28T02:50:42.041Z,98615.00
2023-03-28T02:54:46.932Z,98607.00
2023-03-28T02:58:55.015Z,98607.00
2023-03-28T03:02:56.538Z,98602.00
2023-03-28T03:06:59.496Z,98606.00
2023-03-28T03:11:00.540Z,98603.00
2023-03-28T03:15:03.418Z,98602.00
2023-03-28T03:19:04.895Z,98607.00
2023-03-28T03:23:06.826Z,98618.00
2023-03-28T03:27:07.942Z,98603.00
2023-03-28T03:31:08.921Z,98603.00
2023-03-28T03:35:10.486Z,98614.00
2023-03-28T03:39:11.860Z,98606.00
2023-03-28T03:43:13.071Z,98606.00
2023-03-28T03:47:16.103Z,98615.00
2023-03-28T03:51:17.426Z,98614.00
2023-03-28T03:55:20.189Z,98618.00
2023-03-28T03:59:21.362Z,98623.00
2023-03-28T04:03:24.213Z,98620.00
2023-03-28T04:07:25.625Z,98627.00
2023-03-28T04:11:26.734Z,98623.00
2023-03-28T04:15:27.861Z,98626.00
2023-03-28T04:19:29.048Z,98635.00
2023-03-28T04:23:30.005Z,98646.00
2023-03-28T04:27:30.957Z,98647.00
2023-03-28T04:31:34.575Z,98640.00
2023-03-28T04:35:35.993Z,98662.00
2023-03-28T04:39:37.028Z,98664.00
2023-03-28T04:43:38.120Z,98669.00
2023-03-28T04:47:39.189Z,98663.00
2023-03-28T04:51:40.532Z,98665.00
2023-03-28T04:55:43.425Z,98671.00
2023-03-28T04:59:44.373Z,98669.00
2023-03-28T05:03:45.407Z,98672.00
2023-03-28T05:07:46.676Z,98679.00
2023-03-28T05:11:47.660Z,98680.00
2023-03-28T05:15:48.856Z,98677.00
2023-03-28T05:19:49.918Z,98683.00
2023-03-28T05:23:52.512Z,98659.00
2023-03-28T05:27:53.695Z,98698.00
2023-03-28T05:31:54.899Z,98704.00
2023-03-28T05:35:56.054Z,98711.00
2023-03-28T05:39:57.132Z,98709.00
2023-03-28T05:43:58.113Z,98721.00
2023-03-28T05:47:59.226Z,98716.00
2023-03-28T05:52:00.293Z,98729.00
2023-03-28T05:56:01.503Z,98726.00
2023-03-28T06:00:10.624Z,98752.00
2023-03-28T06:04:12.179Z,98733.00
2023-03-28T06:08:13.164Z,98733.00
2023-03-28T06:12:14.163Z,98738.00
2023-03-28T06:16:15.392Z,98736.00
2023-03-28T06:20:16.943Z,98740.00
2023-03-28T06:24:17.894Z,98741.00
2023-03-28T06:28:19.375Z,98740.00
2023-03-28T06:32:20.516Z,98737.00
2023-03-28T06:36:21.794Z,98743.00
2023-03-28T06:40:22.791Z,98748.00
2023-03-28T06:44:23.962Z,98753.00
2023-03-28T06:48:30.122Z,98754.00
2023-03-28T06:52:31.314Z,98753.00
2023-03-28T06:56:33.179Z,98748.00
2023-03-28T07:00:34.888Z,98751.00
2023-03-28T07:04:36.456Z,98750.00
2023-03-28T07:08:38.082Z,98753.00
2023-03-28T07:12:39.263Z,98760.00
2023-03-28T07:16:40.684Z,98763.00
2023-03-28T07:20:43.036Z,98759.00
2023-03-28T07:24:44.886Z,98765.00
2023-03-28T07:28:46.241Z,98765.00
2023-03-28T07:32:55.205Z,98784.00
2023-03-28T07:36:50.159Z,98778.00
2023-03-28T07:40:51.432Z,98785.00
2023-03-28T07:44:53.386Z,98794.00
2023-03-28T07:48:55.637Z,98794.00
2023-03-28T07:52:57.461Z,98797.00
2023-03-28T07:56:59.593Z,98795.00
2023-03-28T08:01:06.109Z,98810.00
2023-03-28T08:05:08.205Z,98810.00
2023-03-28T08:09:11.893Z,98816.00
2023-03-28T08:13:13.028Z,98817.00
2023-03-28T08:17:14.094Z,98817.00
2023-03-28T08:21:15.372Z,98822.00
2023-03-28T08:25:16.895Z,98834.00
2023-03-28T08:29:20.160Z,98831.00
2023-03-28T08:33:21.347Z,98837.00
2023-03-28T08:37:24.332Z,98838.00
2023-03-28T08:41:59.555Z,98838.00
2023-03-28T08:46:01.360Z,98839.00
2023-03-28T08:50:17.721Z,98834.00
2023-03-28T08:54:25.824Z,98832.00
2023-03-28T08:58:31.082Z,98832.00
2023-03-28T09:02:32.286Z,98827.00
2023-03-28T09:06:39.199Z,98839.00
2023-03-28T09:10:47.074Z,98837.00
2023-03-28T09:14:55.251Z,98846.00
2023-03-28T09:19:16.676Z,98837.00
2023-03-28T09:23:37.913Z,98837.00
2023-03-28T09:28:08.321Z,98827.00
2023-03-28T09:32:22.145Z,98827.00
2023-03-28T09:36:31.588Z,98824.00
2023-03-28T09:40:33.146Z,98820.00
2023-03-28T09:44:53.993Z,98820.00
2023-03-28T09:48:47.577Z,98816.00
2023-03-28T09:52:52.820Z,98815.00
2023-03-28T09:57:02.982Z,98805.00
2023-03-28T10:01:07.840Z,98813.00
2023-03-28T10:05:33.908Z,98804.00
2023-03-28T10:09:53.676Z,98806.00
2023-03-28T10:13:55.649Z,98795.00
2023-03-28T10:17:59.819Z,98798.00
2023-03-28T10:22:06.792Z,98787.00
2023-03-28T10:26:12.021Z,98785.00
2023-03-28T10:30:25.756Z,98786.00
2023-03-28T10:34:32.800Z,98784.00
2023-03-28T10:38:45.973Z,98802.00
2023-03-28T10:42:49.741Z,98779.00
2023-03-28T10:46:51.734Z,98767.00
2023-03-28T10:50:55.345Z,98781.00
2023-03-28T10:55:15.460Z,98793.00
2023-03-28T10:59:35.183Z,98791.00
2023-03-28T11:03:55.364Z,98778.00
2023-03-28T11:08:03.240Z,98782.00
2023-03-28T11:12:28.357Z,98770.00
2023-03-28T11:16:38.925Z,98770.00
2023-03-28T11:21:03.013Z,98765.00
2023-03-28T11:25:23.187Z,98759.00
2023-03-28T11:29:43.257Z,98751.00
2023-03-28T11:33:50.971Z,98753.00
2023-03-28T11:38:10.211Z,98743.00
2023-03-28T11:42:30.344Z,98742.00
2023-03-28T11:46:51.593Z,98739.00
2023-03-28T11:51:14.463Z,98735.00
2023-03-28T11:55:22.395Z,98730.00
2023-03-28T11:59:45.852Z,98726.00
2023-03-28T12:04:02.763Z,98717.00
2023-03-28T12:08:13.770Z,98718.00
2023-03-28T12:12:21.353Z,98707.00
2023-03-28T12:16:26.557Z,98695.00
2023-03-28T12:20:40.792Z,98697.00
2023-03-28T12:24:51.856Z,98688.00
2023-03-28T12:28:55.269Z,98680.00
2023-03-28T12:33:06.482Z,98676.00
2023-03-28T12:37:14.040Z,98674.00
2023-03-28T12:41:18.684Z,98675.00
2023-03-28T12:45:26.290Z,98667.00
2023-03-28T12:49:36.576Z,98666.00
2023-03-28T12:53:44.249Z,98666.00
2023-03-28T12:57:46.669Z,98641.00
2023-03-28T13:01:49.931Z,98662.00
2023-03-28T13:06:12.271Z,98663.00
2023-03-28T13:10:18.421Z,98657.00
2023-03-28T13:14:37.435Z,98649.00
2023-03-28T13:18:47.792Z,98651.00
2023-03-28T13:23:04.059Z,98642.00
2023-03-28T13:27:16.149Z,98636.00
2023-03-28T13:31:26.404Z,98632.00
2023-03-28T13:35:45.870Z,98628.00
2023-03-28T13:39:54.944Z,98622.00
2023-03-28T13:43:58.450Z,98625.00
2023-03-28T13:48:10.012Z,98608.00
2023-03-28T13:52:21.815Z,98607.00
2023-03-28T13:56:26.765Z,98609.00
2023-03-28T14:04:37.610Z,98590.00
2023-03-28T14:08:42.576Z,98575.00
2023-03-28T14:12:43.569Z,98576.00
2023-03-28T14:16:45.749Z,98569.00
2023-03-28T14:20:47.027Z,98570.00
2023-03-28T14:24:53.575Z,98564.00
2023-03-28T14:29:04.081Z,98561.00
2023-03-28T14:33:16.630Z,98436.00
2023-03-28T14:37:18.284Z,98553.00
2023-03-28T14:41:25.428Z,98553.00
2023-03-28T14:45:28.809Z,98551.00
2023-03-28T14:49:30.385Z,98550.00
2023-03-28T14:53:38.476Z,98541.00
2023-03-28T14:57:40.148Z,98521.00
2023-03-28T15:01:43.460Z,98517.00
2023-03-28T15:05:46.749Z,98527.00
2023-03-28T15:10:06.670Z,98512.00
2023-03-28T15:14:18.318Z,98490.00
2023-03-28T15:18:24.754Z,98492.00
2023-03-28T15:22:28.401Z,98497.00
2023-03-28T15:26:33.210Z,98489.00
2023-03-28T15:30:37.208Z,98488.00
2023-03-28T15:34:44.531Z,98484.00
2023-03-28T15:38:51.392Z,98479.00
2023-03-28T15:42:52.703Z,98477.00
2023-03-28T15:46:57.608Z,98475.00
2023-03-28T15:51:04.909Z,98469.00
2023-03-28T15:55:06.485Z,98458.00
2023-03-28T15:59:14.268Z,98452.00
2023-03-28T16:03:22.179Z,98445.00
2023-03-28T16:07:23.281Z,98441.00
2023-03-28T16:11:26.650Z,98435.00
2023-03-28T16:15:27.657Z,98440.00
2023-03-28T16:19:30.560Z,98438.00
2023-03-28T16:23:31.686Z,98429.00
2023-03-28T16:27:32.936Z,98426.00
2023-03-28T16:31:34.122Z,98423.00
2023-03-28T16:35:35.767Z,98415.00
2023-03-28T16:39:37.608Z,98407.00
2023-03-28T16:43:39.499Z,98392.00
2023-03-28T16:47:40.883Z,98386.00
2023-03-28T16:51:42.224Z,98376.00
2023-03-28T16:55:43.245Z,98380.00
2023-03-28T16:59:44.254Z,98373.00
2023-03-28T17:03:46.165Z,98215.00
2023-03-28T17:07:47.243Z,98356.00
2023-03-28T17:11:48.257Z,98362.00
2023-03-28T17:15:50.338Z,98366.00
2023-03-28T17:19:52.122Z,98361.00
2023-03-28T17:23:54.717Z,98359.00
2023-03-28T17:27:55.872Z,98356.00
2023-03-28T17:31:56.872Z,98344.00
2023-03-28T17:35:58.173Z,98335.00
2023-03-28T17:39:59.418Z,98340.00
2023-03-28T17:44:00.504Z,98344.00
2023-03-28T17:48:01.959Z,98341.00
2023-03-28T17:52:03.650Z,98345.00
2023-03-28T17:56:06.628Z,98342.00
2023-03-28T18:00:09.130Z,98342.00
2023-03-28T18:04:10.734Z,98345.00
2023-03-28T18:08:11.931Z,98346.00
2023-03-28T18:12:13.282Z,98346.00
2023-03-28T18:16:17.549Z,98343.00
2023-03-28T18:20:18.600Z,98338.00
2023-03-28T18:24:21.212Z,98359.00
2023-03-28T18:28:24.491Z,98345.00
2023-03-28T18:32:25.665Z,98350.00
2023-03-28T18:36:26.914Z,98349.00
2023-03-28T18:40:28.212Z,98341.00
2023-03-28T18:44:29.545Z,98347.00
2023-03-28T18:48:30.626Z,98345.00
2023-03-28T18:52:32.117Z,98335.00
2023-03-28T18:56:34.157Z,98332.00
2023-03-28T19:00:35.735Z,98321.00
2023-03-28T19:04:37.234Z,98317.00
2023-03-28T19:08:38.505Z,98308.00
2023-03-28T19:12:40.569Z,98301.00
2023-03-28T19:16:41.744Z,98302.00
2023-03-28T19:20:46.760Z,98297.00
2023-03-28T19:24:47.912Z,98307.00
2023-03-28T19:28:49.694Z,98307.00
2023-03-28T19:32:51.723Z,98301.00
2023-03-28T19:36:52.698Z,98298.00
2023-03-28T19:41:01.129Z,98299.00
2023-03-28T19:45:02.071Z,98298.00
2023-03-28T19:49:05.605Z,98308.00
2023-03-28T19:53:06.612Z,98308.00
2023-03-28T19:57:08.415Z,98295.00
2023-03-28T20:01:09.699Z,98294.00
2023-03-28T20:05:10.724Z,98290.00
2023-03-28T20:09:11.721Z,98304.00
2023-03-28T20:13:13.254Z,98292.00
2023-03-28T20:17:14.237Z,98302.00
2023-03-28T20:21:15.448Z,98312.00
2023-03-28T20:25:16.564Z,98320.00
2023-03-28T20:29:17.900Z,98307.00
2023-03-28T20:33:21.902Z,98311.00
2023-03-28T20:37:22.875Z,98310.00
2023-03-28T20:41:23.963Z,98280.00
2023-03-28T20:45:25.046Z,98294.00
2023-03-28T20:49:26.592Z,98291.00
2023-03-28T20:53:28.473Z,98292.00
2023-03-28T20:57:29.649Z,98292.00
2023-03-28T21:01:33.183Z,98291.00
2023-03-28T21:05:34.511Z,98286.00
2023-03-28T21:09:36.023Z,98289.00
2023-03-28T21:13:37.163Z,98275.00
2023-03-28T21:17:39.327Z,98266.00
2023-03-28T21:21:40.532Z,98258.00
2023-03-28T21:25:42.581Z,98249.00
2023-03-28T21:33:56.196Z,98227.00
2023-03-28T21:37:57.339Z,98242.00
2023-03-28T21:41:59.028Z,98247.00
2023-03-28T21:46:00.242Z,98140.00
2023-03-28T21:50:03.367Z,98253.00
2023-03-28T21:54:05.820Z,98249.00
2023-03-28T21:58:07.152Z,98256.00
2023-03-28T22:02:08.226Z,98260.00
2023-03-28T22:06:10.044Z,98245.00
2023-03-28T22:10:11.555Z,98230.00
2023-03-28T22:14:12.628Z,98221.00
2023-03-28T22:18:15.250Z,98222.00
2023-03-28T22:22:19.176Z,98218.00
2023-03-28T22:26:20.543Z,98210.00
2023-03-28T22:30:21.613Z,98212.00
2023-03-28T22:34:22.739Z,98193.00
2023-03-28T22:38:23.891Z,98202.00
2023-03-28T22:42:25.102Z,98197.00
2023-03-28T22:46:26.340Z,98196.00
2023-03-28T22:50:28.289Z,98206.00
2023-03-28T22:54:30.796Z,98197.00
2023-03-28T22:58:32.969Z,98200.00
2023-03-28T23:02:34.510Z,98200.00
2023-03-28T23:06:35.633Z,98198.00
2023-03-28T23:10:37.131Z,98191.00
2023-03-28T23:14:38.638Z,98175.00
2023-03-28T23:18:39.642Z,98181.00
2023-03-28T23:22:43.066Z,98171.00
2023-03-28T23:26:44.046Z,98168.00
2023-03-28T23:30:45.186Z,98171.00
2023-03-28T23:34:46.258Z,98153.00
2023-03-28T23:38:48.287Z,98139.00
2023-03-28T23:42:49.419Z,98136.00
2023-03-28T23:46:50.874Z,98121.00
2023-03-28T23:50:52.038Z,98116.00
2023-03-28T23:54:53.151Z,98107.00
2023-03-28T23:58:54.294Z,98101.00
